createdAt,value
2023-05-24T00:01:59.783Z,78.67
2023-05-24T00:04:30.168Z,78.71
2023-05-24T00:04:54.260Z,78.71
2023-05-24T00:06:56.852Z,79.54
2023-05-24T00:09:23.253Z,79.45
2023-05-24T00:09:54.119Z,79.45
2023-05-24T00:11:49.695Z,80.01
2023-05-24T00:14:16.306Z,79.93
2023-05-24T00:14:54.133Z,79.93
2023-05-24T00:16:42.777Z,80.74
2023-05-24T00:19:11.394Z,81.13
2023-05-24T00:19:54.531Z,81.13
2023-05-24T00:21:38.430Z,82.91
2023-05-24T00:24:08.115Z,82.26
2023-05-24T00:24:54.114Z,82.26
2023-05-24T00:26:34.482Z,82.41
2023-05-24T00:29:00.878Z,82.99
2023-05-24T00:29:54.132Z,82.99
2023-05-24T00:31:27.287Z,82.93
2023-05-24T00:33:53.761Z,82.76
2023-05-24T00:34:54.148Z,82.76
2023-05-24T00:36:20.296Z,83.77
2023-05-24T00:38:46.796Z,83.57
2023-05-24T00:39:54.155Z,83.57
2023-05-24T00:41:13.207Z,83.91
2023-05-24T00:43:39.685Z,84.55
2023-05-24T00:44:54.163Z,84.55
2023-05-24T00:46:16.203Z,85.14
2023-05-24T00:48:42.967Z,84.88
2023-05-24T00:49:54.136Z,84.88
2023-05-24T00:51:10.607Z,85.57
2023-05-24T00:53:37.905Z,86.12
2023-05-24T00:54:54.121Z,86.12
2023-05-24T00:56:04.419Z,86.72
2023-05-24T00:58:32.137Z,87.04
2023-05-24T00:59:54.144Z,87.04
2023-05-24T01:01:00.179Z,86.75
2023-05-24T01:03:31.052Z,87.49
2023-05-24T01:04:54.147Z,87.49
2023-05-24T01:06:04.586Z,87.65
2023-05-24T01:08:40.056Z,88.89
2023-05-24T01:09:54.145Z,88.89
2023-05-24T01:11:32.381Z,88.51
2023-05-24T01:14:03.205Z,89.79
2023-05-24T01:14:54.146Z,89.79
2023-05-24T01:16:41.768Z,90.78
2023-05-24T01:19:35.299Z,92.52
2023-05-24T01:19:54.200Z,92.52
2023-05-24T01:22:16.958Z,93.07
2023-05-24T01:24:56.198Z,93.15
2023-05-24T01:24:56.321Z,93.15
2023-05-24T01:27:23.953Z,94.87
2023-05-24T01:29:53.500Z,95.24
2023-05-24T01:29:54.122Z,95.24
2023-05-24T01:32:20.402Z,96.03
2023-05-24T01:34:46.851Z,96.84
2023-05-24T01:34:54.158Z,96.84
2023-05-24T01:37:13.310Z,98.37
2023-05-24T01:39:40.433Z,98.47
2023-05-24T01:39:54.173Z,98.47
2023-05-24T01:42:25.728Z,100.00
2023-05-24T01:45:14.123Z,100.00
2023-05-24T01:45:14.277Z,100.00
2023-05-24T01:48:02.015Z,100.00
2023-05-24T01:49:54.141Z,100.00
2023-05-24T01:50:32.865Z,100.00
2023-05-24T01:53:04.756Z,100.00
2023-05-24T01:54:54.134Z,100.00
2023-05-24T01:55:33.268Z,100.00
2023-05-24T01:58:03.474Z,100.00
2023-05-24T01:59:54.142Z,100.00
2023-05-24T02:00:31.358Z,100.00
2023-05-24T02:02:58.360Z,100.00
2023-05-24T02:04:54.133Z,100.00
2023-05-24T02:05:25.080Z,100.00
2023-05-24T02:07:51.502Z,100.00
2023-05-24T02:09:54.119Z,100.00
2023-05-24T02:10:17.963Z,100.00
2023-05-24T02:12:44.379Z,100.00
2023-05-24T02:14:54.122Z,100.00
2023-05-24T02:15:11.219Z,100.00
2023-05-24T02:17:37.642Z,100.00
2023-05-24T02:19:54.209Z,100.00
2023-05-24T02:20:04.445Z,100.00
2023-05-24T02:22:30.908Z,100.00
2023-05-24T02:24:54.133Z,100.00
2023-05-24T02:24:57.724Z,100.00
2023-05-24T02:27:24.130Z,100.00
2023-05-24T02:29:50.580Z,100.00
2023-05-24T02:29:54.126Z,100.00
2023-05-24T02:32:17.033Z,100.00
2023-05-24T02:34:44.024Z,100.00
2023-05-24T02:34:54.160Z,100.00
2023-05-24T02:37:14.488Z,100.00
2023-05-24T02:39:42.133Z,100.00
2023-05-24T02:39:54.176Z,100.00
2023-05-24T02:42:08.975Z,100.00
2023-05-24T02:44:35.598Z,100.00
2023-05-24T02:44:54.121Z,100.00
2023-05-24T02:47:02.345Z,100.00
2023-05-24T02:49:28.783Z,100.00
2023-05-24T02:49:54.161Z,100.00
2023-05-24T02:51:55.388Z,100.00
2023-05-24T02:54:21.813Z,100.00
2023-05-24T02:54:54.132Z,100.00
2023-05-24T02:56:48.192Z,100.00
2023-05-24T02:59:14.896Z,100.00
2023-05-24T02:59:54.153Z,100.00
2023-05-24T03:01:41.444Z,100.00
2023-05-24T03:04:08.042Z,100.00
2023-05-24T03:04:54.155Z,100.00
2023-05-24T03:06:34.614Z,100.00
2023-05-24T03:09:01.073Z,100.00
2023-05-24T03:09:54.137Z,100.00
2023-05-24T03:11:27.483Z,100.00
2023-05-24T03:13:53.889Z,100.00
2023-05-24T03:14:54.142Z,100.00
2023-05-24T03:16:21.033Z,100.00
2023-05-24T03:18:50.464Z,100.00
2023-05-24T03:19:54.209Z,100.00
2023-05-24T03:21:18.014Z,100.00
2023-05-24T03:23:44.443Z,100.00
2023-05-24T03:24:54.130Z,100.00
2023-05-24T03:26:10.885Z,100.00
2023-05-24T03:28:37.321Z,100.00
2023-05-24T03:29:54.149Z,100.00
2023-05-24T03:31:03.920Z,100.00
2023-05-24T03:33:32.070Z,100.00
2023-05-24T03:34:54.184Z,100.00
2023-05-24T03:35:58.621Z,100.00
2023-05-24T03:38:24.997Z,100.00
2023-05-24T03:39:54.184Z,100.00
2023-05-24T03:40:51.521Z,100.00
2023-05-24T03:43:18.166Z,100.00
2023-05-24T03:44:54.166Z,100.00
2023-05-24T03:45:44.607Z,100.00
2023-05-24T03:48:11.293Z,100.00
2023-05-24T03:49:54.138Z,100.00
2023-05-24T03:50:37.709Z,100.00
2023-05-24T03:53:04.392Z,100.00
2023-05-24T03:54:54.197Z,100.00
2023-05-24T03:55:30.943Z,100.00
2023-05-24T03:57:57.355Z,100.00
2023-05-24T03:59:54.169Z,100.00
2023-05-24T04:00:23.778Z,100.00
2023-05-24T04:02:50.693Z,100.00
2023-05-24T04:04:54.165Z,100.00
2023-05-24T04:05:17.336Z,100.00
2023-05-24T04:07:45.288Z,100.00
2023-05-24T04:09:54.163Z,100.00
2023-05-24T04:10:11.933Z,100.00
2023-05-24T04:12:38.496Z,100.00
2023-05-24T04:14:54.162Z,100.00
2023-05-24T04:15:05.407Z,100.00
2023-05-24T04:17:34.980Z,100.00
2023-05-24T04:19:54.184Z,100.00
2023-05-24T04:20:01.973Z,100.00
2023-05-24T04:22:28.591Z,100.00
2023-05-24T04:24:55.090Z,98.10
2023-05-24T04:24:55.327Z,98.10
2023-05-24T04:27:22.109Z,95.04
2023-05-24T04:29:53.159Z,92.46
2023-05-24T04:29:54.126Z,92.46
2023-05-24T04:32:19.889Z,89.54
2023-05-24T04:34:47.529Z,85.93
2023-05-24T04:34:54.137Z,85.93
2023-05-24T04:37:13.946Z,84.51
2023-05-24T04:39:40.835Z,83.48
2023-05-24T04:39:54.176Z,83.48
2023-05-24T04:42:07.794Z,83.38
2023-05-24T04:44:34.298Z,82.29
2023-05-24T04:44:54.114Z,82.29
2023-05-24T04:47:03.031Z,80.63
2023-05-24T04:49:30.003Z,80.01
2023-05-24T04:49:54.151Z,80.01
2023-05-24T04:51:57.085Z,79.76
2023-05-24T04:54:24.302Z,78.39
2023-05-24T04:54:54.142Z,78.39
2023-05-24T04:56:51.450Z,79.00
2023-05-24T04:59:18.001Z,77.91
2023-05-24T04:59:54.141Z,77.91
2023-05-24T05:01:44.516Z,76.18
2023-05-24T05:04:11.048Z,75.68
2023-05-24T05:04:54.138Z,75.68
2023-05-24T05:06:40.291Z,75.50
2023-05-24T05:09:11.539Z,73.52
2023-05-24T05:09:54.144Z,73.52
2023-05-24T05:11:38.027Z,71.43
2023-05-24T05:14:04.812Z,69.68
2023-05-24T05:14:54.169Z,69.68
2023-05-24T05:16:31.819Z,67.94
2023-05-24T05:18:58.546Z,65.12
2023-05-24T05:19:54.205Z,65.12
2023-05-24T05:21:25.231Z,65.84
2023-05-24T05:23:51.596Z,66.42
2023-05-24T05:24:54.128Z,66.42
2023-05-24T05:26:18.089Z,64.93
2023-05-24T05:28:44.880Z,63.58
2023-05-24T05:29:54.135Z,63.58
2023-05-24T05:31:11.313Z,63.31
2023-05-24T05:33:37.829Z,63.65
2023-05-24T05:34:54.165Z,63.65
2023-05-24T05:36:04.270Z,62.97
2023-05-24T05:38:30.896Z,61.64
2023-05-24T05:39:54.245Z,61.64
2023-05-24T05:40:58.919Z,61.92
2023-05-24T05:43:25.403Z,60.03
2023-05-24T05:44:54.157Z,60.03
2023-05-24T05:45:51.825Z,61.09
2023-05-24T05:48:18.249Z,63.40
2023-05-24T05:49:54.137Z,63.40
2023-05-24T05:50:44.698Z,66.27
2023-05-24T05:53:11.183Z,66.46
2023-05-24T05:54:54.141Z,66.46
2023-05-24T05:55:40.021Z,65.96
2023-05-24T05:58:06.479Z,63.92
2023-05-24T05:59:54.147Z,63.92
2023-05-24T06:00:32.920Z,64.27
2023-05-24T06:02:59.495Z,65.98
2023-05-24T06:04:54.315Z,65.98
2023-05-24T06:05:25.989Z,68.77
2023-05-24T06:07:52.498Z,69.93
2023-05-24T06:09:54.145Z,69.93
2023-05-24T06:10:18.912Z,67.82
2023-05-24T06:12:45.348Z,68.10
2023-05-24T06:14:54.147Z,68.10
2023-05-24T06:15:12.214Z,67.75
2023-05-24T06:17:38.726Z,67.46
2023-05-24T06:19:54.166Z,67.46
2023-05-24T06:20:15.442Z,65.50
2023-05-24T06:22:42.598Z,64.58
2023-05-24T06:24:54.145Z,64.58
2023-05-24T06:25:09.729Z,63.52
2023-05-24T06:27:36.260Z,63.99
2023-05-24T06:29:54.198Z,63.99
2023-05-24T06:30:02.758Z,64.67
2023-05-24T06:32:29.249Z,64.68
2023-05-24T06:34:54.157Z,64.68
2023-05-24T06:34:55.902Z,65.60
2023-05-24T06:37:25.343Z,65.85
2023-05-24T06:39:52.076Z,66.74
2023-05-24T06:39:54.228Z,66.74
2023-05-24T06:42:18.452Z,66.41
2023-05-24T06:44:44.902Z,66.48
2023-05-24T06:44:54.155Z,66.48
2023-05-24T06:47:11.542Z,68.16
2023-05-24T06:49:38.287Z,69.50
2023-05-24T06:49:54.183Z,69.50
2023-05-24T06:52:05.212Z,69.88
2023-05-24T06:54:31.710Z,70.21
2023-05-24T06:54:54.188Z,70.21
2023-05-24T06:56:58.955Z,73.05
2023-05-24T06:59:25.759Z,74.86
2023-05-24T06:59:54.144Z,74.86
2023-05-24T07:01:57.293Z,74.43
2023-05-24T07:04:25.426Z,74.35
2023-05-24T07:04:54.417Z,74.35
2023-05-24T07:06:52.804Z,72.17
2023-05-24T07:09:19.899Z,72.90
2023-05-24T07:09:54.172Z,72.90
2023-05-24T07:11:46.478Z,73.28
2023-05-24T07:14:12.939Z,72.50
2023-05-24T07:14:54.159Z,72.50
2023-05-24T07:16:41.807Z,73.33
2023-05-24T07:19:08.351Z,71.44
2023-05-24T07:19:54.202Z,71.44
2023-05-24T07:21:35.196Z,69.20
2023-05-24T07:24:03.968Z,68.08
2023-05-24T07:24:54.171Z,68.08
2023-05-24T07:26:30.451Z,67.27
2023-05-24T07:28:57.016Z,68.49
2023-05-24T07:29:54.153Z,68.49
2023-05-24T07:31:23.579Z,67.96
2023-05-24T07:33:49.933Z,68.66
2023-05-24T07:34:54.192Z,68.66
2023-05-24T07:36:16.316Z,68.94
2023-05-24T07:38:42.729Z,67.31
2023-05-24T07:39:54.166Z,67.31
2023-05-24T07:41:09.335Z,67.64
2023-05-24T07:43:37.563Z,66.79
2023-05-24T07:44:54.130Z,66.79
2023-05-24T07:46:04.247Z,66.70
2023-05-24T07:48:30.819Z,65.73
2023-05-24T07:49:54.172Z,65.73
2023-05-24T07:50:57.361Z,65.49
2023-05-24T07:53:23.715Z,64.52
2023-05-24T07:54:54.186Z,64.52
2023-05-24T07:55:50.796Z,65.26
2023-05-24T07:58:17.218Z,64.90
2023-05-24T07:59:54.166Z,64.90
2023-05-24T08:00:43.708Z,67.23
2023-05-24T08:03:13.445Z,66.87
2023-05-24T08:04:54.150Z,66.87
2023-05-24T08:05:40.589Z,65.27
2023-05-24T08:08:07.702Z,63.33
2023-05-24T08:09:54.161Z,63.33
2023-05-24T08:10:34.070Z,63.53
2023-05-24T08:13:00.586Z,64.33
2023-05-24T08:14:54.169Z,64.33
2023-05-24T08:15:27.030Z,62.51
2023-05-24T08:17:53.561Z,63.83
2023-05-24T08:19:54.167Z,63.83
2023-05-24T08:20:20.879Z,63.07
2023-05-24T08:22:48.533Z,62.58
2023-05-24T08:24:54.166Z,62.58
2023-05-24T08:25:15.185Z,63.06
2023-05-24T08:27:41.826Z,64.41
2023-05-24T08:29:56.816Z,64.41
2023-05-24T08:30:08.863Z,65.35
2023-05-24T08:32:36.267Z,66.32
2023-05-24T08:35:00.364Z,66.32
2023-05-24T08:35:17.464Z,65.80
2023-05-24T08:37:49.258Z,65.49
2023-05-24T08:39:54.146Z,65.49
2023-05-24T08:40:16.756Z,64.03
2023-05-24T08:42:44.688Z,62.02
2023-05-24T08:44:54.161Z,62.02
2023-05-24T08:45:12.874Z,62.22
2023-05-24T08:47:40.712Z,62.44
2023-05-24T08:49:54.157Z,62.44
2023-05-24T08:50:08.498Z,62.70
2023-05-24T08:52:36.029Z,62.85
2023-05-24T08:54:54.172Z,62.85
2023-05-24T08:55:05.231Z,62.70
2023-05-24T08:57:34.516Z,63.33
2023-05-24T08:59:54.182Z,63.33
2023-05-24T09:00:01.059Z,63.69
2023-05-24T09:02:27.881Z,64.50
2023-05-24T09:04:55.178Z,65.24
2023-05-24T09:04:55.317Z,65.24
2023-05-24T09:07:25.909Z,63.76
2023-05-24T09:09:58.546Z,62.98
2023-05-24T09:09:58.785Z,62.98
2023-05-24T09:12:36.653Z,62.12
2023-05-24T09:14:54.175Z,23
2023-05-24T09:15:06.839Z,62.22
2023-05-24T09:17:35.749Z,61.61
2023-05-24T09:19:54.225Z,61.61
2023-05-24T09:20:06.124Z,61.24
2023-05-24T09:22:33.613Z,61.48
2023-05-24T09:24:54.169Z,61.48
2023-05-24T09:25:05.164Z,61.52
2023-05-24T09:27:32.664Z,61.06
2023-05-24T09:29:54.152Z,61.06
2023-05-24T09:29:59.176Z,59.55
2023-05-24T09:32:25.704Z,59.95
2023-05-24T09:34:53.997Z,59.49
2023-05-24T09:34:54.159Z,59.49
2023-05-24T09:37:29.681Z,58.96
2023-05-24T09:39:54.214Z,58.96
2023-05-24T09:39:58.491Z,58.86
2023-05-24T09:42:28.738Z,58.14
2023-05-24T09:44:54.211Z,58.14
2023-05-24T09:45:09.708Z,58.34
2023-05-24T09:47:37.566Z,58.10
2023-05-24T09:49:54.167Z,58.10
2023-05-24T09:50:06.791Z,57.54
2023-05-24T09:52:37.028Z,58.16
2023-05-24T09:54:54.174Z,58.16
2023-05-24T09:55:13.252Z,57.77
2023-05-24T09:57:39.710Z,55.19
2023-05-24T09:59:54.180Z,55.19
2023-05-24T10:00:14.576Z,55.93
2023-05-24T10:02:51.868Z,56.35
2023-05-24T10:04:54.318Z,56.35
2023-05-24T10:05:19.815Z,56.65
2023-05-24T10:07:46.917Z,56.14
2023-05-24T10:09:54.164Z,56.14
2023-05-24T10:10:13.357Z,56.62
2023-05-24T10:12:46.957Z,55.27
2023-05-24T10:14:54.166Z,55.27
2023-05-24T10:15:13.606Z,58.05
2023-05-24T10:17:40.776Z,59.94
2023-05-24T10:19:54.223Z,59.94
2023-05-24T10:20:09.093Z,59.38
2023-05-24T10:22:40.591Z,59.66
2023-05-24T10:24:54.172Z,59.66
2023-05-24T10:25:10.738Z,59.01
2023-05-24T10:27:38.483Z,59.02
2023-05-24T10:29:54.184Z,59.02
2023-05-24T10:30:15.026Z,57.85
2023-05-24T10:32:43.591Z,58.80
2023-05-24T10:34:54.195Z,58.80
2023-05-24T10:35:15.103Z,58.61
2023-05-24T10:37:42.690Z,57.56
2023-05-24T10:39:54.164Z,57.56
2023-05-24T10:40:17.679Z,56.00
2023-05-24T10:42:45.189Z,55.88
2023-05-24T10:44:54.171Z,55.88
2023-05-24T10:45:38.875Z,54.49
2023-05-24T10:48:28.725Z,54.43
2023-05-24T10:49:54.173Z,54.43
2023-05-24T10:50:55.637Z,53.53
2023-05-24T10:53:25.937Z,53.93
2023-05-24T10:55:03.130Z,53.93
2023-05-24T10:55:59.792Z,53.12
2023-05-24T10:58:32.931Z,52.00
2023-05-24T10:59:54.166Z,52.00
2023-05-24T11:00:59.800Z,52.10
2023-05-24T11:03:33.242Z,50.80
2023-05-24T11:04:54.206Z,50.80
2023-05-24T11:06:00.138Z,52.73
2023-05-24T11:08:31.887Z,53.18
2023-05-24T11:09:54.219Z,53.18
2023-05-24T11:11:24.591Z,53.77
2023-05-24T11:13:57.963Z,55.31
2023-05-24T11:14:54.173Z,55.31
2023-05-24T11:16:37.566Z,54.50
2023-05-24T11:19:29.421Z,55.37
2023-05-24T11:19:54.282Z,55.37
2023-05-24T11:21:58.940Z,53.10
2023-05-24T11:24:26.819Z,52.70
2023-05-24T11:24:54.154Z,52.70
2023-05-24T11:26:54.210Z,50.43
2023-05-24T11:29:23.134Z,49.59
2023-05-24T11:29:54.268Z,49.59
2023-05-24T11:31:52.731Z,50.34
2023-05-24T11:34:20.474Z,49.97
2023-05-24T11:34:54.173Z,49.97
2023-05-24T11:36:47.708Z,53.24
2023-05-24T11:39:14.780Z,53.01
2023-05-24T11:39:54.216Z,53.01
2023-05-24T11:41:41.792Z,50.71
2023-05-24T11:44:10.854Z,51.34
2023-05-24T11:44:54.159Z,51.34
2023-05-24T11:46:39.397Z,51.31
2023-05-24T11:49:06.918Z,51.82
2023-05-24T11:49:54.159Z,51.82
2023-05-24T11:51:35.296Z,52.17
2023-05-24T11:54:01.867Z,52.30
2023-05-24T11:54:54.217Z,52.30
2023-05-24T11:56:33.909Z,52.81
2023-05-24T11:59:15.866Z,54.55
2023-05-24T11:59:54.149Z,54.55
2023-05-24T12:01:43.183Z,54.98
2023-05-24T12:04:10.490Z,56.56
2023-05-24T12:04:54.260Z,56.56
2023-05-24T12:06:39.792Z,57.15
2023-05-24T12:09:08.584Z,56.33
2023-05-24T12:09:54.202Z,56.33
2023-05-24T12:11:39.533Z,56.42
2023-05-24T12:14:06.215Z,56.53
2023-05-24T12:14:54.190Z,56.53
2023-05-24T12:16:33.358Z,56.71
2023-05-24T12:19:05.671Z,55.69
2023-05-24T12:19:54.212Z,55.69
2023-05-24T12:21:41.388Z,56.78
2023-05-24T12:24:12.338Z,56.81
2023-05-24T12:24:54.189Z,56.81
2023-05-24T12:26:43.677Z,56.65
2023-05-24T12:29:13.966Z,57.27
2023-05-24T12:29:54.318Z,57.27
2023-05-24T12:31:42.440Z,57.51
2023-05-24T12:34:13.108Z,55.14
2023-05-24T12:34:54.197Z,55.14
2023-05-24T12:36:43.022Z,54.79
2023-05-24T12:39:31.472Z,54.88
2023-05-24T12:39:54.848Z,54.88
2023-05-24T12:41:59.198Z,54.35
2023-05-24T12:44:27.500Z,53.30
2023-05-24T12:44:54.187Z,53.30
2023-05-24T12:46:55.678Z,52.94
2023-05-24T12:49:25.463Z,53.03
2023-05-24T12:49:54.200Z,53.03
2023-05-24T12:51:55.962Z,52.74
2023-05-24T12:54:24.202Z,51.50
2023-05-24T12:54:54.255Z,51.50
2023-05-24T12:56:54.920Z,52.13
2023-05-24T12:59:22.663Z,51.10
2023-05-24T12:59:54.240Z,51.10
2023-05-24T13:01:52.522Z,50.86
2023-05-24T13:04:21.934Z,49.52
2023-05-24T13:04:54.431Z,49.52
2023-05-24T13:06:49.086Z,48.62
2023-05-24T13:09:18.078Z,47.72
2023-05-24T13:09:54.273Z,47.72
2023-05-24T13:11:45.431Z,49.16
2023-05-24T13:14:12.348Z,47.72
2023-05-24T13:14:54.285Z,47.72
2023-05-24T13:16:38.842Z,47.72
2023-05-24T13:19:05.431Z,48.71
2023-05-24T13:19:54.330Z,48.71
2023-05-24T13:21:32.301Z,48.26
2023-05-24T13:23:58.963Z,49.83
2023-05-24T13:24:54.318Z,49.83
2023-05-24T13:26:25.363Z,49.40
2023-05-24T13:29:18.346Z,49.24
2023-05-24T13:30:00.933Z,49.24
2023-05-24T13:31:38.862Z,49.20
2023-05-24T13:34:06.058Z,48.53
2023-05-24T13:34:54.371Z,48.53
2023-05-24T13:36:32.899Z,48.81
2023-05-24T13:39:14.012Z,49.44
2023-05-24T13:39:54.388Z,49.44
2023-05-24T13:41:43.004Z,49.03
2023-05-24T13:44:10.433Z,49.98
2023-05-24T13:44:54.433Z,49.98
2023-05-24T13:46:37.249Z,51.06
2023-05-24T13:49:04.359Z,52.72
2023-05-24T13:49:54.456Z,52.72
2023-05-24T13:51:30.832Z,51.37
2023-05-24T13:53:57.474Z,50.34
2023-05-24T13:54:54.466Z,50.34
2023-05-24T13:56:24.787Z,51.43
2023-05-24T13:58:52.237Z,50.76
2023-05-24T13:59:54.484Z,50.76
2023-05-24T14:01:19.512Z,50.29
2023-05-24T14:03:46.200Z,52.74
2023-05-24T14:04:59.261Z,52.74
2023-05-24T14:06:12.630Z,52.33
2023-05-24T14:08:39.163Z,51.62
2023-05-24T14:09:54.534Z,51.62
2023-05-24T14:11:05.681Z,52.74
2023-05-24T14:14:35.435Z,53.40
2023-05-24T14:16:19.216Z,54.44
2023-05-24T14:18:48.754Z,54.24
2023-05-24T14:19:54.661Z,54.24
2023-05-24T14:21:15.448Z,53.56
2023-05-24T14:23:42.068Z,54.33
2023-05-24T14:24:54.629Z,54.33
2023-05-24T14:26:08.626Z,54.99
2023-05-24T14:28:35.130Z,53.11
2023-05-24T14:29:54.893Z,53.11
2023-05-24T14:31:02.255Z,52.67
2023-05-24T14:33:28.746Z,53.68
2023-05-24T14:34:54.990Z,53.68
2023-05-24T14:35:55.219Z,52.48
2023-05-24T14:38:24.844Z,53.12
2023-05-24T14:39:54.744Z,53.12
2023-05-24T14:40:51.670Z,52.33
2023-05-24T14:43:18.098Z,52.27
2023-05-24T14:44:54.691Z,52.27
2023-05-24T14:45:44.827Z,52.62
2023-05-24T14:48:12.466Z,53.15
2023-05-24T14:49:54.781Z,53.15
2023-05-24T14:50:40.649Z,53.85
2023-05-24T14:53:09.843Z,53.74
2023-05-24T14:54:54.792Z,53.74
2023-05-24T14:55:37.322Z,53.21
2023-05-24T14:58:04.852Z,53.75
2023-05-24T14:59:54.784Z,53.75
2023-05-24T15:00:31.655Z,51.76
2023-05-24T15:02:58.294Z,52.66
2023-05-24T15:04:54.810Z,52.66
2023-05-24T15:05:24.772Z,53.46
2023-05-24T15:07:51.228Z,53.86
2023-05-24T15:09:54.853Z,53.86
2023-05-24T15:10:17.740Z,52.23
2023-05-24T15:12:44.328Z,52.95
2023-05-24T15:14:54.861Z,52.95
2023-05-24T15:15:11.055Z,52.58
2023-05-24T15:17:37.530Z,50.85
2023-05-24T15:19:54.865Z,50.85
2023-05-24T15:20:04.485Z,50.40
2023-05-24T15:22:31.208Z,50.45
2023-05-24T15:24:54.877Z,50.45
2023-05-24T15:24:57.621Z,51.71
2023-05-24T15:27:26.449Z,53.16
2023-05-24T15:29:54.585Z,52.95
2023-05-24T15:29:54.974Z,52.95
2023-05-24T15:32:21.054Z,50.67
2023-05-24T15:34:47.560Z,53.12
2023-05-24T15:34:54.932Z,53.12
2023-05-24T15:37:13.941Z,53.99
2023-05-24T15:39:40.357Z,54.45
2023-05-24T15:39:54.956Z,54.45
2023-05-24T15:42:07.381Z,54.76
2023-05-24T15:44:33.839Z,53.85
2023-05-24T15:44:54.972Z,53.85
2023-05-24T15:47:00.853Z,54.02
2023-05-24T15:49:28.254Z,53.50
2023-05-24T15:49:54.954Z,53.50
2023-05-24T15:54:24.139Z,54.07
2023-05-24T15:54:55.065Z,54.07
2023-05-24T15:56:50.613Z,53.68
2023-05-24T15:59:17.803Z,53.35
2023-05-24T15:59:54.998Z,53.35
2023-05-24T16:01:45.155Z,53.16
2023-05-24T16:04:11.681Z,52.59
2023-05-24T16:04:55.036Z,52.59
2023-05-24T16:06:38.181Z,53.45
2023-05-24T16:09:05.330Z,54.22
2023-05-24T16:09:55.066Z,54.22
2023-05-24T16:11:31.790Z,55.42
2023-05-24T16:13:59.020Z,57.04
2023-05-24T16:14:55.049Z,57.04
2023-05-24T16:18:55.608Z,56.25
2023-05-24T16:19:55.316Z,56.25
2023-05-24T16:21:22.244Z,55.88
2023-05-24T16:23:49.216Z,57.17
2023-05-24T16:24:55.154Z,57.17
2023-05-24T16:26:15.672Z,57.38
2023-05-24T16:28:42.102Z,56.63
2023-05-24T16:29:55.213Z,56.63
2023-05-24T16:31:08.606Z,56.93
2023-05-24T16:33:35.117Z,58.42
2023-05-24T16:34:57.198Z,58.42
2023-05-24T16:36:04.329Z,58.04
2023-05-24T16:38:30.822Z,57.00
2023-05-24T16:39:55.187Z,57.00
2023-05-24T16:40:57.425Z,58.20
2023-05-24T16:43:23.935Z,57.73
2023-05-24T16:44:55.215Z,57.73
2023-05-24T16:45:53.097Z,56.13
2023-05-24T16:48:21.473Z,57.85
2023-05-24T16:49:55.347Z,57.85
2023-05-24T16:50:48.380Z,56.60
2023-05-24T16:53:14.910Z,56.19
2023-05-24T16:54:55.316Z,56.19
2023-05-24T16:55:41.443Z,57.41
2023-05-24T16:58:07.854Z,57.90
2023-05-24T16:59:55.290Z,57.90
2023-05-24T17:00:34.302Z,57.78
2023-05-24T17:03:00.936Z,57.36
2023-05-24T17:04:55.339Z,57.36
2023-05-24T17:05:27.811Z,57.41
2023-05-24T17:07:54.977Z,58.18
2023-05-24T17:09:55.361Z,58.18
2023-05-24T17:10:21.625Z,58.65
2023-05-24T17:12:50.335Z,58.36
2023-05-24T17:14:55.447Z,58.36
2023-05-24T17:15:17.060Z,59.49
2023-05-24T17:17:43.588Z,59.20
2023-05-24T17:19:55.447Z,59.20
2023-05-24T17:20:10.450Z,58.72
2023-05-24T17:22:36.989Z,59.17
2023-05-24T17:24:55.407Z,59.17
2023-05-24T17:25:04.280Z,60.24
2023-05-24T17:27:30.760Z,58.86
2023-05-24T17:29:55.510Z,58.86
2023-05-24T17:29:57.349Z,58.19
2023-05-24T17:32:23.912Z,58.71
2023-05-24T17:34:50.353Z,59.70
2023-05-24T17:34:55.513Z,59.70
2023-05-24T17:37:16.737Z,60.29
2023-05-24T17:39:43.185Z,59.92
2023-05-24T17:39:55.853Z,59.92
2023-05-24T17:42:09.587Z,59.53
2023-05-24T17:44:36.106Z,58.58
2023-05-24T17:44:55.575Z,58.58
2023-05-24T17:47:04.820Z,59.98
2023-05-24T17:49:32.368Z,59.91
2023-05-24T17:49:55.605Z,59.91
2023-05-24T17:52:00.851Z,59.91
2023-05-24T17:54:27.658Z,60.30
2023-05-24T17:54:55.691Z,60.30
2023-05-24T17:56:54.154Z,60.74
2023-05-24T17:59:20.593Z,61.88
2023-05-24T17:59:55.641Z,61.88
2023-05-24T18:01:47.426Z,62.21
2023-05-24T18:04:14.057Z,63.02
2023-05-24T18:04:55.715Z,63.02
2023-05-24T18:06:40.459Z,62.49
2023-05-24T18:09:06.934Z,62.81
2023-05-24T18:09:56.355Z,62.81
2023-05-24T18:11:33.461Z,62.59
2023-05-24T18:14:00.483Z,62.93
2023-05-24T18:14:55.733Z,62.93
2023-05-24T18:16:27.317Z,62.75
2023-05-24T18:18:54.503Z,62.79
2023-05-24T18:19:55.848Z,62.79
2023-05-24T18:21:20.870Z,63.63
2023-05-24T18:23:47.348Z,63.37
2023-05-24T18:24:55.782Z,63.37
2023-05-24T18:26:13.803Z,64.18
2023-05-24T18:28:42.042Z,64.17
2023-05-24T18:29:55.842Z,64.17
2023-05-24T18:31:14.353Z,64.40
2023-05-24T18:33:41.125Z,64.65
2023-05-24T18:34:55.850Z,64.65
2023-05-24T18:36:07.937Z,64.18
2023-05-24T18:38:35.163Z,64.52
2023-05-24T18:39:55.950Z,64.52
2023-05-24T18:41:05.662Z,65.00
2023-05-24T18:43:32.615Z,65.82
2023-05-24T18:44:55.962Z,65.82
2023-05-24T18:45:59.059Z,66.45
2023-05-24T18:48:25.501Z,66.76
2023-05-24T18:49:55.994Z,66.76
2023-05-24T18:50:52.084Z,66.39
2023-05-24T18:53:18.529Z,66.44
2023-05-24T18:54:56.054Z,66.44
2023-05-24T18:55:49.208Z,67.07
2023-05-24T18:58:15.740Z,67.68
2023-05-24T18:59:55.984Z,67.68
2023-05-24T19:00:42.323Z,68.19
2023-05-24T19:03:10.867Z,67.81
2023-05-24T19:04:56.037Z,67.81
2023-05-24T19:05:39.526Z,68.89
2023-05-24T19:08:07.529Z,69.26
2023-05-24T19:09:56.059Z,69.26
2023-05-24T19:10:34.046Z,70.18
2023-05-24T19:13:01.929Z,69.78
2023-05-24T19:14:56.053Z,69.78
2023-05-24T19:15:28.456Z,70.73
2023-05-24T19:17:57.599Z,70.79
2023-05-24T19:19:56.055Z,70.79
2023-05-24T19:20:24.281Z,71.15
2023-05-24T19:22:50.843Z,70.53
2023-05-24T19:24:56.123Z,70.53
2023-05-24T19:25:17.392Z,70.29
2023-05-24T19:27:57.926Z,70.75
2023-05-24T19:29:56.199Z,70.75
2023-05-24T19:30:26.028Z,70.58
2023-05-24T19:32:52.437Z,70.46
2023-05-24T19:34:56.178Z,70.46
2023-05-24T19:35:18.851Z,70.60
2023-05-24T19:37:45.235Z,72.01
2023-05-24T19:39:56.250Z,72.01
2023-05-24T19:40:11.746Z,72.01
2023-05-24T19:42:38.160Z,72.97
2023-05-24T19:44:56.171Z,72.97
2023-05-24T19:45:05.005Z,73.72
2023-05-24T19:47:31.496Z,74.22
2023-05-24T19:49:56.179Z,74.22
2023-05-24T19:49:58.157Z,74.66
2023-05-24T19:52:24.582Z,74.53
2023-05-24T19:54:51.028Z,75.29
2023-05-24T19:54:56.240Z,75.29
2023-05-24T19:57:17.425Z,76.38
2023-05-24T19:59:43.872Z,76.93
2023-05-24T19:59:56.305Z,76.93
2023-05-24T20:02:10.254Z,77.43
2023-05-24T20:04:41.847Z,78.84
2023-05-24T20:04:56.274Z,78.84
2023-05-24T20:07:08.805Z,79.07
2023-05-24T20:09:35.756Z,79.62
2023-05-24T20:09:56.428Z,79.62
2023-05-24T20:12:02.696Z,79.96
2023-05-24T20:14:31.278Z,80.82
2023-05-24T20:14:56.326Z,80.82
2023-05-24T20:16:58.866Z,81.14
2023-05-24T20:19:26.238Z,81.23
2023-05-24T20:19:56.431Z,81.23
2023-05-24T20:21:52.876Z,81.88
2023-05-24T20:24:19.480Z,81.76
2023-05-24T20:24:56.391Z,81.76
2023-05-24T20:26:46.109Z,82.27
2023-05-24T20:29:12.596Z,82.77
2023-05-24T20:29:56.475Z,82.77
2023-05-24T20:31:39.134Z,82.97
2023-05-24T20:34:05.676Z,83.13
2023-05-24T20:34:56.460Z,83.13
2023-05-24T20:36:32.726Z,83.87
2023-05-24T20:38:59.168Z,84.20
2023-05-24T20:39:56.558Z,84.20
2023-05-24T20:41:26.498Z,84.70
2023-05-24T20:43:53.102Z,85.01
2023-05-24T20:44:56.511Z,85.01
2023-05-24T20:46:19.702Z,85.87
2023-05-24T20:48:46.570Z,86.51
2023-05-24T20:49:56.556Z,86.51
2023-05-24T20:51:12.971Z,87.67
2023-05-24T20:53:40.295Z,89.49
2023-05-24T20:54:56.562Z,89.49
2023-05-24T20:56:06.967Z,90.24
2023-05-24T20:58:33.453Z,90.88
2023-05-24T20:59:56.620Z,90.88
2023-05-24T21:01:00.058Z,91.87
2023-05-24T21:03:26.886Z,92.34
2023-05-24T21:04:56.663Z,92.34
2023-05-24T21:05:53.514Z,92.69
2023-05-24T21:08:20.057Z,92.75
2023-05-24T21:09:56.708Z,92.75
2023-05-24T21:10:46.534Z,93.42
2023-05-24T21:13:13.067Z,94.38
2023-05-24T21:14:56.705Z,94.38
2023-05-24T21:15:39.588Z,95.12
2023-05-24T21:18:06.265Z,95.35
2023-05-24T21:19:56.800Z,95.35